Time;durP1;ratioP1;P1;durP2;ratioP2;P2;SDS_P1;SDS_P2;PMS_P1;PMS_P2;Temp;Humidity;BMP_temperature;BMP_pressure;BME280_temperature;BME280_humidity;BME280_pressure;Samples;Min_cycle;Max_cycle;Signal;HPM_P1;HPM_P2
2022/03/10 00:01:49;;;;;;;16.48;10.98;;;3.00;94.00;;;;;;4667141;28;10000078;-70
2022/03/10 00:04:15;;;;;;;18.17;11.50;;;2.90;94.50;;;;;;5010107;28;20036;-70
2022/03/10 00:06:40;;;;;;;20.23;11.82;;;2.90;95.30;;;;;;5022289;28;20401;-70
2022/03/10 00:09:06;;;;;;;18.92;11.90;;;2.90;95.70;;;;;;5028834;28;20026;-70
2022/03/10 00:11:31;;;;;;;18.50;11.60;;;2.90;95.70;;;;;;5017358;28;20057;-70
2022/03/10 00:13:57;;;;;;;20.50;11.93;;;2.80;95.90;;;;;;5007480;28;20025;-70
2022/03/10 00:16:23;;;;;;;17.88;11.20;;;2.90;96.10;;;;;;5017421;28;20037;-69
2022/03/10 00:18:48;;;;;;;19.48;11.80;;;2.80;96.20;;;;;;5027918;28;20026;-70
2022/03/10 00:21:14;;;;;;;19.40;11.38;;;2.80;96.40;;;;;;5013287;28;20657;-69
2022/03/10 00:23:40;;;;;;;20.60;13.43;;;2.90;96.60;;;;;;5013977;28;20382;-69
2022/03/10 00:26:05;;;;;;;25.33;14.73;;;2.80;97.50;;;;;;5016969;28;20025;-69
2022/03/10 00:28:33;;;;;;;27.50;15.68;;;2.70;98.10;;;;;;5033619;28;20501;-69
2022/03/10 00:30:59;;;;;;;26.80;15.43;;;2.60;99.00;;;;;;5033005;28;20065;-69
2022/03/10 00:33:25;;;;;;;23.10;14.82;;;2.50;99.90;;;;;;5040244;28;20075;-69
2022/03/10 00:35:50;;;;;;;27.95;14.75;;;2.40;99.90;;;;;;5040578;28;20112;-69
2022/03/10 00:38:16;;;;;;;22.98;13.90;;;2.30;99.90;;;;;;5034571;28;20017;-69
2022/03/10 00:40:41;;;;;;;22.52;14.07;;;2.30;99.90;;;;;;5029014;28;20028;-69
2022/03/10 00:43:14;;;;;;;23.52;13.10;;;2.40;99.90;;;;;;5042745;28;20572;-69
2022/03/10 00:45:40;;;;;;;18.63;10.23;;;2.40;99.90;;;;;;5030888;28;20116;-69
2022/03/10 00:48:06;;;;;;;26.50;13.82;;;2.50;99.90;;;;;;5040566;28;20295;-69
2022/03/10 00:50:32;;;;;;;23.02;13.02;;;2.60;99.90;;;;;;5038482;28;20052;-69
2022/03/10 00:52:59;;;;;;;20.77;13.30;;;2.60;99.90;;;;;;5046372;28;20146;-69
2022/03/10 00:55:25;;;;;;;21.67;12.40;;;2.60;99.90;;;;;;5045683;28;20214;-69
2022/03/10 00:57:51;;;;;;;21.02;13.65;;;2.60;99.90;;;;;;5038460;28;20029;-70
2022/03/10 01:00:19;;;;;;;18.60;12.27;;;2.50;99.90;;;;;;5040918;28;20024;-69
2022/03/10 01:02:45;;;;;;;21.17;13.05;;;2.30;99.90;;;;;;5033956;28;20374;-69
2022/03/10 01:05:11;;;;;;;26.10;15.10;;;2.20;99.90;;;;;;5041168;28;20025;-69
2022/03/10 01:07:37;;;;;;;21.75;14.02;;;2.10;99.90;;;;;;5038425;28;20029;-70
2022/03/10 01:10:05;;;;;;;21.60;13.88;;;2.00;99.90;;;;;;5035757;28;20032;-69
2022/03/10 01:12:31;;;;;;;25.38;14.60;;;1.90;99.90;;;;;;5039897;28;20178;-70
2022/03/10 01:14:57;;;;;;;22.48;14.38;;;1.80;99.90;;;;;;5036260;28;20040;-70
2022/03/10 01:17:23;;;;;;;24.35;14.98;;;1.70;99.90;;;;;;5037054;28;20021;-70
2022/03/10 01:19:48;;;;;;;24.58;15.13;;;1.90;99.90;;;;;;5038312;28;20049;-69
2022/03/10 01:22:14;;;;;;;22.02;14.52;;;2.00;99.90;;;;;;5034596;28;20036;-69
2022/03/10 01:24:41;;;;;;;22.08;13.00;;;2.20;99.90;;;;;;5035070;28;20033;-69
2022/03/10 01:27:08;;;;;;;21.58;13.45;;;2.20;99.90;;;;;;5039710;28;20547;-69
2022/03/10 01:29:34;;;;;;;22.83;13.50;;;2.40;99.90;;;;;;5036326;28;20530;-69
2022/03/10 01:31:59;;;;;;;18.45;12.10;;;2.40;99.90;;;;;;5039328;28;20220;-70
2022/03/10 01:34:25;;;;;;;18.27;11.80;;;2.30;99.90;;;;;;5035665;28;20021;-69
2022/03/10 01:36:51;;;;;;;17.13;11.30;;;2.20;99.90;;;;;;5038891;28;20021;-69
2022/03/10 01:39:16;;;;;;;15.43;10.43;;;2.10;99.90;;;;;;5039680;28;20300;-69
2022/03/10 01:41:43;;;;;;;15.65;10.73;;;1.90;99.90;;;;;;5037060;28;20033;-69
2022/03/10 01:44:10;;;;;;;17.20;10.98;;;1.80;99.90;;;;;;5037430;28;20033;-69
2022/03/10 01:46:37;;;;;;;17.00;10.98;;;1.70;99.90;;;;;;5031343;28;20116;-69
2022/03/10 01:49:04;;;;;;;16.20;10.88;;;1.70;99.90;;;;;;5034208;28;20055;-69
2022/03/10 01:51:30;;;;;;;18.10;10.90;;;1.60;99.90;;;;;;5036470;28;20447;-69
2022/03/10 01:53:56;;;;;;;17.20;10.63;;;1.60;99.90;;;;;;5042711;28;20037;-69
2022/03/10 01:56:22;;;;;;;18.60;11.82;;;1.50;99.90;;;;;;5040783;28;20029;-69
2022/03/10 01:58:49;;;;;;;20.73;11.70;;;1.60;99.90;;;;;;5041248;28;20032;-69
2022/03/10 02:01:16;;;;;;;20.58;12.57;;;1.70;99.90;;;;;;5038986;28;20558;-69
2022/03/10 02:03:42;;;;;;;19.45;12.32;;;1.80;99.90;;;;;;5039586;28;20029;-69
2022/03/10 02:06:09;;;;;;;21.38;12.73;;;1.90;99.90;;;;;;5033558;28;20033;-69
2022/03/10 02:11:19;;;;;;;16.92;11.50;;;1.70;99.90;;;;;;5047458;28;20060;-69
2022/03/10 02:13:45;;;;;;;18.50;10.88;;;1.60;99.90;;;;;;5037368;28;20664;-69
2022/03/10 02:19:00;;;;;;;16.00;10.77;;;1.40;99.90;;;;;;5038271;28;20424;-69
2022/03/10 02:21:26;;;;;;;20.42;11.15;;;1.40;99.90;;;;;;5036862;28;20112;-69
2022/03/10 02:23:52;;;;;;;17.23;11.38;;;1.30;99.90;;;;;;5038693;28;20056;-69
2022/03/10 02:26:18;;;;;;;19.15;12.27;;;1.30;99.90;;;;;;5047067;28;20056;-69
2022/03/10 02:28:43;;;;;;;16.75;11.25;;;1.30;99.90;;;;;;5041044;28;20300;-69
2022/03/10 02:31:10;;;;;;;18.58;11.30;;;1.30;99.90;;;;;;5029454;28;20561;-69
2022/03/10 02:33:36;;;;;;;19.15;11.70;;;1.30;99.90;;;;;;5039640;28;20388;-69
2022/03/10 02:36:02;;;;;;;17.13;11.32;;;1.20;99.90;;;;;;5036945;28;20037;-69
2022/03/10 02:38:27;;;;;;;17.45;11.48;;;1.20;99.90;;;;;;5039991;28;20499;-69
2022/03/10 02:40:53;;;;;;;18.13;11.20;;;1.20;99.90;;;;;;5040804;28;20029;-69
2022/03/10 02:43:20;;;;;;;16.98;11.30;;;1.10;99.90;;;;;;5037255;28;20461;-69
2022/03/10 02:45:46;;;;;;;18.15;11.70;;;1.10;99.90;;;;;;5026866;28;20029;-69
2022/03/10 02:48:13;;;;;;;20.08;12.40;;;1.10;99.90;;;;;;5038448;28;20052;-69
2022/03/10 02:50:39;;;;;;;20.25;12.52;;;1.10;99.90;;;;;;5039810;28;20044;-69
2022/03/10 02:53:07;;;;;;;19.42;12.13;;;1.10;99.90;;;;;;5031462;28;20030;-69
2022/03/10 02:55:33;;;;;;;18.55;11.77;;;1.00;99.90;;;;;;5025589;28;20037;-69
2022/03/10 02:57:58;;;;;;;18.88;11.77;;;1.00;99.90;;;;;;5036507;28;20265;-69
2022/03/10 03:00:24;;;;;;;17.73;11.75;;;1.00;99.90;;;;;;5033346;28;20033;-69
2022/03/10 03:02:50;;;;;;;21.83;12.10;;;0.90;99.90;;;;;;5044288;28;20029;-69
2022/03/10 03:05:16;;;;;;;20.17;12.23;;;0.90;99.90;;;;;;5037450;28;20313;-69
2022/03/10 03:07:43;;;;;;;19.17;11.88;;;0.90;99.90;;;;;;5034375;28;20045;-69
2022/03/10 03:10:10;;;;;;;18.35;12.23;;;0.90;99.90;;;;;;5042065;28;20041;-69
2022/03/10 03:12:46;;;;;;;18.20;11.75;;;0.80;99.90;;;;;;5042052;28;20029;-69
2022/03/10 03:15:12;;;;;;;18.45;12.38;;;0.80;99.90;;;;;;5032180;28;20515;-69
2022/03/10 03:17:37;;;;;;;18.15;11.63;;;0.80;99.90;;;;;;5036875;28;20033;-69
2022/03/10 03:20:04;;;;;;;19.65;12.85;;;0.70;99.90;;;;;;5039346;28;20033;-69
2022/03/10 03:22:30;;;;;;;20.50;12.73;;;0.70;99.90;;;;;;5030331;28;20032;-68
2022/03/10 03:24:56;;;;;;;20.90;13.30;;;0.70;99.90;;;;;;5035867;28;20040;-69
2022/03/10 03:27:22;;;;;;;19.65;12.38;;;0.70;99.90;;;;;;5040069;28;20456;-69
2022/03/10 03:29:47;;;;;;;19.80;12.70;;;0.60;99.90;;;;;;5033042;28;20095;-69
2022/03/10 03:32:13;;;;;;;19.38;12.05;;;0.60;99.90;;;;;;5034584;28;20321;-68
2022/03/10 03:34:39;;;;;;;19.42;12.18;;;0.60;99.90;;;;;;5026192;28;20108;-69
2022/03/10 03:37:05;;;;;;;19.30;12.10;;;0.60;99.90;;;;;;5033714;28;20163;-69
2022/03/10 03:39:30;;;;;;;20.65;12.50;;;0.60;99.90;;;;;;5030912;28;20041;-68
2022/03/10 03:41:56;;;;;;;19.95;12.85;;;0.60;99.90;;;;;;5033542;28;20033;-69
2022/03/10 03:44:22;;;;;;;21.33;12.63;;;0.60;99.90;;;;;;5032463;28;20075;-69
2022/03/10 03:46:48;;;;;;;22.55;13.23;;;0.60;99.90;;;;;;5034312;28;20481;-69
2022/03/10 03:49:13;;;;;;;20.77;13.20;;;0.60;99.90;;;;;;5032687;28;20236;-69
2022/03/10 03:51:39;;;;;;;21.58;12.82;;;0.50;99.90;;;;;;5036323;28;20098;-69
2022/03/10 03:54:06;;;;;;;21.15;13.38;;;0.50;99.90;;;;;;5028812;28;20028;-68
2022/03/10 03:56:32;;;;;;;22.92;13.82;;;0.50;99.90;;;;;;5035272;28;20063;-69
2022/03/10 03:58:57;;;;;;;20.33;12.90;;;0.50;99.90;;;;;;5034364;28;20037;-69
2022/03/10 04:01:23;;;;;;;22.33;13.82;;;0.40;99.90;;;;;;5032867;28;20503;-69
2022/03/10 04:03:48;;;;;;;20.48;13.20;;;0.40;99.90;;;;;;5031242;28;20082;-69
2022/03/10 04:06:16;;;;;;;23.17;13.48;;;0.40;99.90;;;;;;5030610;28;20458;-68
2022/03/10 04:08:42;;;;;;;19.92;13.18;;;0.40;99.90;;;;;;5033052;28;20395;-68
2022/03/10 04:11:07;;;;;;;18.50;12.45;;;0.40;99.90;;;;;;5034118;28;20034;-68
2022/03/10 04:13:33;;;;;;;19.98;12.82;;;0.40;99.90;;;;;;5031843;28;20044;-68
2022/03/10 04:15:59;;;;;;;18.85;12.45;;;0.40;99.90;;;;;;5035929;28;20131;-68
2022/03/10 04:18:24;;;;;;;19.60;12.20;;;0.40;99.90;;;;;;5029097;28;20034;-68
2022/03/10 04:20:50;;;;;;;20.13;12.43;;;0.40;99.90;;;;;;5033849;28;20029;-68
2022/03/10 04:23:16;;;;;;;20.38;12.27;;;0.40;99.90;;;;;;5037857;28;20083;-68
2022/03/10 04:25:42;;;;;;;21.58;12.52;;;0.40;99.90;;;;;;5029085;28;20460;-68
2022/03/10 04:28:09;;;;;;;19.20;12.57;;;0.40;99.90;;;;;;5041450;28;20412;-68
2022/03/10 04:30:34;;;;;;;21.42;13.65;;;0.40;99.90;;;;;;5045329;28;20550;-68
2022/03/10 04:33:01;;;;;;;20.23;12.77;;;0.40;99.90;;;;;;5045224;28;20037;-68
2022/03/10 04:35:27;;;;;;;20.58;12.98;;;;;;;;;;5029411;28;20030;-68
2022/03/10 04:37:53;;;;;;;19.27;12.68;;;0.30;99.90;;;;;;5037487;28;20064;-69
2022/03/10 04:40:20;;;;;;;21.95;12.93;;;0.30;99.90;;;;;;5041393;28;20068;-69
2022/03/10 04:42:48;;;;;;;22.58;14.20;;;0.20;99.90;;;;;;5030856;28;20025;-68
2022/03/10 04:45:13;;;;;;;21.35;14.15;;;0.20;99.90;;;;;;5043501;28;20061;-69
2022/03/10 04:47:41;;;;;;;22.52;13.85;;;0.10;99.90;;;;;;5043807;28;20063;-69
2022/03/10 04:50:08;;;;;;;22.67;13.88;;;0.10;99.90;;;;;;5036478;28;20037;-68
2022/03/10 04:52:34;;;;;;;21.52;13.65;;;0.00;99.90;;;;;;5032223;28;20108;-69
2022/03/10 04:55:00;;;;;;;22.10;13.52;;;0.00;99.90;;;;;;5031518;28;20808;-68
2022/03/10 04:57:26;;;;;;;21.70;13.65;;;0.00;99.90;;;;;;5033624;28;20025;-69
2022/03/10 04:59:51;;;;;;;22.98;13.93;;;-0.10;99.90;;;;;;5047260;28;20393;-69
2022/03/10 05:02:17;;;;;;;20.75;14.02;;;-0.10;99.90;;;;;;5036235;28;20095;-68
2022/03/10 05:04:43;;;;;;;22.63;14.55;;;-0.20;99.90;;;;;;5044542;28;20028;-69
2022/03/10 05:07:09;;;;;;;25.63;14.88;;;-0.20;99.90;;;;;;5050862;28;20037;-69
2022/03/10 05:09:34;;;;;;;25.50;16.40;;;-0.10;99.90;;;;;;5038628;28;20060;-69
2022/03/10 05:12:00;;;;;;;24.92;15.80;;;0.00;99.90;;;;;;5039519;28;20044;-69
2022/03/10 05:14:26;;;;;;;24.85;14.52;;;0.10;99.90;;;;;;5033113;28;20139;-69
2022/03/10 05:16:52;;;;;;;26.35;15.48;;;0.30;99.90;;;;;;5042582;28;20029;-69
2022/03/10 05:19:17;;;;;;;27.25;14.27;;;0.60;99.90;;;;;;5046151;28;20035;-69
2022/03/10 05:21:43;;;;;;;27.70;14.85;;;0.80;99.90;;;;;;5048930;28;20112;-69
2022/03/10 05:24:10;;;;;;;23.85;14.68;;;1.00;99.90;;;;;;5047526;28;20074;-68
2022/03/10 05:26:37;;;;;;;24.02;15.43;;;1.10;99.90;;;;;;5037013;28;20041;-68
2022/03/10 05:29:03;;;;;;;26.30;14.82;;;1.10;99.90;;;;;;5035015;28;20033;-68
2022/03/10 05:31:28;;;;;;;26.50;14.45;;;1.20;99.90;;;;;;5035814;28;20190;-68
2022/03/10 05:33:54;;;;;;;23.85;14.30;;;1.20;99.90;;;;;;5031103;28;20086;-69
2022/03/10 05:36:20;;;;;;;25.65;15.85;;;1.20;99.90;;;;;;5034032;28;20021;-69
2022/03/10 05:38:45;;;;;;;29.20;15.88;;;1.10;99.90;;;;;;5032597;28;20264;-69
2022/03/10 05:41:11;;;;;;;25.42;15.30;;;1.00;99.90;;;;;;5033879;28;20048;-69
2022/03/10 05:43:37;;;;;;;24.30;15.15;;;0.90;99.90;;;;;;5029451;28;20053;-69
2022/03/10 05:46:03;;;;;;;24.55;15.52;;;0.70;99.90;;;;;;5032535;28;20060;-68
2022/03/10 05:48:30;;;;;;;25.80;16.08;;;0.60;99.90;;;;;;5035017;28;20397;-68
2022/03/10 05:50:56;;;;;;;24.35;15.88;;;0.40;99.90;;;;;;5035377;28;20131;-69
2022/03/10 05:53:22;;;;;;;29.52;15.98;;;0.30;99.90;;;;;;5035769;28;20555;-69
2022/03/10 05:55:47;;;;;;;26.02;16.38;;;0.30;99.90;;;;;;5034803;28;20029;-69
2022/03/10 05:58:13;;;;;;;31.60;16.45;;;0.50;99.90;;;;;;5033698;28;20071;-69
2022/03/10 06:00:39;;;;;;;26.27;15.85;;;0.70;99.90;;;;;;5037264;28;20041;-69
2022/03/10 06:03:06;;;;;;;25.67;16.23;;;0.70;99.90;;;;;;5045903;28;20039;-69
2022/03/10 06:05:32;;;;;;;24.25;16.00;;;0.80;99.90;;;;;;5031973;28;20401;-69
2022/03/10 06:07:58;;;;;;;24.80;15.40;;;0.80;99.90;;;;;;5040545;28;20041;-68
2022/03/10 06:10:24;;;;;;;27.00;16.92;;;0.80;99.90;;;;;;5031099;28;20037;-69
2022/03/10 06:12:50;;;;;;;25.50;16.23;;;0.80;99.90;;;;;;5043694;28;20034;-69
2022/03/10 06:15:15;;;;;;;27.50;15.95;;;0.90;99.90;;;;;;5043945;28;20060;-69
2022/03/10 06:17:41;;;;;;;29.25;17.17;;;1.00;99.90;;;;;;5035241;28;20476;-69
2022/03/10 06:20:08;;;;;;;29.45;17.42;;;1.10;99.90;;;;;;5047258;28;20040;-69
2022/03/10 06:22:34;;;;;;;27.58;16.08;;;1.10;99.90;;;;;;5044413;28;20021;-68
2022/03/10 06:25:00;;;;;;;24.35;15.13;;;1.00;99.90;;;;;;5042814;28;20467;-69
2022/03/10 06:27:26;;;;;;;25.58;15.45;;;0.80;99.90;;;;;;5029085;28;20057;-69
2022/03/10 06:29:53;;;;;;;26.60;15.98;;;0.70;99.90;;;;;;5039642;28;20037;-69
2022/03/10 06:32:20;;;;;;;28.30;16.30;;;0.60;99.90;;;;;;5046890;28;20043;-69
2022/03/10 06:34:47;;;;;;;24.65;16.00;;;0.50;99.90;;;;;;5026879;28;20104;-68
2022/03/10 06:37:13;;;;;;;29.13;17.23;;;0.40;99.90;;;;;;5026528;28;20033;-68
2022/03/10 06:39:39;;;;;;;28.58;17.00;;;0.40;99.90;;;;;;5033338;28;20055;-69
2022/03/10 06:42:05;;;;;;;26.95;17.17;;;0.50;99.90;;;;;;5046699;28;20033;-69
2022/03/10 06:44:32;;;;;;;25.70;16.80;;;0.50;99.90;;;;;;5032541;28;20029;-68
2022/03/10 06:46:58;;;;;;;28.95;15.80;;;0.60;99.90;;;;;;5027095;28;20033;-68
2022/03/10 06:49:23;;;;;;;32.15;17.70;;;0.60;99.90;;;;;;5026776;28;20469;-69
2022/03/10 06:51:49;;;;;;;30.33;17.25;;;0.70;99.90;;;;;;5044135;28;20029;-69
2022/03/10 06:54:16;;;;;;;28.65;17.15;;;0.90;99.90;;;;;;5044312;28;20427;-69
2022/03/10 06:56:42;;;;;;;33.80;17.52;;;1.00;99.90;;;;;;5037480;28;20533;-68
2022/03/10 06:59:07;;;;;;;29.50;17.92;;;0.90;99.90;;;;;;5042221;28;20032;-68
2022/03/10 07:01:33;;;;;;;30.50;16.38;;;1.00;99.90;;;;;;5028929;28;20029;-68
2022/03/10 07:03:59;;;;;;;27.00;16.75;;;1.00;99.90;;;;;;5024352;28;20491;-69
2022/03/10 07:06:25;;;;;;;30.13;17.02;;;1.10;99.90;;;;;;5029658;28;20032;-69
2022/03/10 07:08:52;;;;;;;33.00;17.40;;;1.20;99.90;;;;;;5034689;28;20045;-68
2022/03/10 07:11:17;;;;;;;23.98;16.10;;;1.30;99.90;;;;;;5026629;28;20033;-69
2022/03/10 07:13:44;;;;;;;25.92;15.77;;;1.30;99.90;;;;;;5028943;28;20029;-69
2022/03/10 07:16:10;;;;;;;25.17;15.88;;;1.20;99.90;;;;;;5036224;28;20041;-69
2022/03/10 07:18:36;;;;;;;24.35;15.52;;;1.10;99.90;;;;;;5046896;28;20025;-69
2022/03/10 07:21:04;;;;;;;24.50;15.52;;;0.90;99.90;;;;;;5046466;28;20094;-69
2022/03/10 07:23:30;;;;;;;24.08;15.70;;;0.80;99.90;;;;;;5045642;28;20392;-69
2022/03/10 07:25:55;;;;;;;27.55;17.05;;;0.70;99.90;;;;;;5027553;28;20095;-69
2022/03/10 07:28:21;;;;;;;32.05;18.55;;;0.70;99.90;;;;;;5030536;28;20492;-69
2022/03/10 07:30:46;;;;;;;29.45;16.90;;;0.70;99.90;;;;;;5028007;28;20030;-69
2022/03/10 07:33:12;;;;;;;27.88;16.80;;;0.70;99.90;;;;;;5026151;28;20389;-69
2022/03/10 07:35:38;;;;;;;26.30;16.80;;;0.90;99.90;;;;;;5029037;28;20082;-69
2022/03/10 07:38:03;;;;;;;30.52;16.95;;;0.90;99.90;;;;;;5045383;28;20409;-69
2022/03/10 07:40:29;;;;;;;29.92;17.50;;;0.90;99.90;;;;;;5045566;28;20064;-69
2022/03/10 07:42:54;;;;;;;28.92;17.33;;;1.00;99.90;;;;;;5028824;28;20032;-69
2022/03/10 07:45:20;;;;;;;27.52;17.13;;;1.10;99.90;;;;;;5030766;28;20443;-69
2022/03/10 07:47:46;;;;;;;27.70;16.90;;;1.20;99.90;;;;;;5042318;28;20443;-69
2022/03/10 07:50:12;;;;;;;27.48;17.25;;;1.30;99.90;;;;;;5026620;28;20496;-68
2022/03/10 07:52:37;;;;;;;28.15;16.75;;;1.40;99.90;;;;;;5026445;28;20025;-69
2022/03/10 07:55:05;;;;;;;29.75;16.40;;;1.50;99.90;;;;;;5024015;28;20112;-69
2022/03/10 07:57:30;;;;;;;25.92;17.00;;;1.50;99.90;;;;;;5030163;28;20235;-69
2022/03/10 07:59:56;;;;;;;27.77;17.20;;;1.60;99.90;;;;;;5036014;28;20037;-69
2022/03/10 08:02:21;;;;;;;29.10;16.95;;;1.70;99.90;;;;;;5040267;28;20468;-69
2022/03/10 08:04:48;;;;;;;30.67;17.35;;;1.70;99.90;;;;;;5031457;28;20116;-69
2022/03/10 08:07:13;;;;;;;28.75;18.38;;;1.80;99.90;;;;;;5045788;28;20104;-69
2022/03/10 08:09:39;;;;;;;34.08;20.25;;;1.90;99.90;;;;;;5046068;28;20520;-69
2022/03/10 08:12:05;;;;;;;28.92;18.85;;;2.00;99.90;;;;;;5036409;28;20052;-69
2022/03/10 08:14:31;;;;;;;33.33;20.08;;;2.20;99.90;;;;;;5041206;28;20033;-69
2022/03/10 08:16:56;;;;;;;34.78;19.85;;;2.40;99.90;;;;;;5028512;28;20413;-69
2022/03/10 08:19:22;;;;;;;32.50;19.02;;;2.70;99.90;;;;;;5049171;28;20032;-69
2022/03/10 08:21:48;;;;;;;30.65;18.73;;;2.90;99.90;;;;;;5041741;28;20034;-69
2022/03/10 08:24:14;;;;;;;32.88;19.02;;;3.10;99.90;;;;;;5028043;28;20030;-69
2022/03/10 08:26:40;;;;;;;30.13;18.98;;;3.40;99.90;;;;;;5027948;28;20025;-69
2022/03/10 08:29:06;;;;;;;32.58;19.52;;;3.60;99.90;;;;;;5029871;28;20497;-69
2022/03/10 08:31:32;;;;;;;34.28;19.27;;;3.80;99.90;;;;;;5037580;28;20037;-69
2022/03/10 08:33:58;;;;;;;32.90;19.52;;;4.00;99.90;;;;;;5028051;28;20032;-69
2022/03/10 08:36:24;;;;;;;33.97;20.00;;;4.20;99.90;;;;;;5030020;28;20057;-69
2022/03/10 08:38:49;;;;;;;32.15;19.40;;;4.40;99.90;;;;;;5032974;28;20416;-69
2022/03/10 08:41:15;;;;;;;35.75;18.58;;;4.60;99.90;;;;;;5048891;28;20277;-69
2022/03/10 08:43:41;;;;;;;32.35;18.90;;;4.70;99.90;;;;;;5041658;28;20044;-69
2022/03/10 08:46:06;;;;;;;28.38;17.77;;;4.90;99.90;;;;;;5031487;28;20608;-69
2022/03/10 08:48:34;;;;;;;29.58;18.95;;;5.00;99.90;;;;;;5037907;28;20041;-70
2022/03/10 08:51:01;;;;;;;29.90;18.83;;;5.20;99.90;;;;;;5029729;28;20357;-70
2022/03/10 08:53:26;;;;;;;31.08;19.08;;;5.40;99.90;;;;;;5029015;28;20113;-70
2022/03/10 08:55:52;;;;;;;30.85;18.27;;;5.50;99.90;;;;;;5035972;28;20127;-69
2022/03/10 08:58:18;;;;;;;28.73;18.70;;;5.80;99.90;;;;;;5048880;28;20477;-69
2022/03/10 09:00:44;;;;;;;27.85;18.25;;;5.90;99.90;;;;;;5041518;28;20030;-69
2022/03/10 09:03:10;;;;;;;31.05;18.60;;;6.00;99.90;;;;;;5029760;28;20036;-69
2022/03/10 09:05:37;;;;;;;31.75;18.25;;;6.10;99.90;;;;;;5028559;28;20443;-69
2022/03/10 09:08:03;;;;;;;31.75;18.23;;;6.20;99.90;;;;;;5038067;28;20527;-69
2022/03/10 09:10:28;;;;;;;28.83;18.13;;;6.50;99.90;;;;;;5048562;28;20148;-69
2022/03/10 09:12:54;;;;;;;30.77;17.42;;;6.50;99.90;;;;;;5045364;28;20430;-69
2022/03/10 09:15:21;;;;;;;29.23;17.88;;;6.70;99.90;;;;;;5055018;28;20035;-69
2022/03/10 09:17:47;;;;;;;24.42;14.85;;;6.90;99.90;;;;;;5042377;28;20392;-69
2022/03/10 09:20:13;;;;;;;24.60;16.50;;;;;;;;;;5028693;28;20021;-69
2022/03/10 09:22:39;;;;;;;22.42;15.30;;;7.10;99.90;;;;;;5046723;28;20025;-69
2022/03/10 09:25:08;;;;;;;23.25;14.95;;;7.10;99.90;;;;;;5046073;28;20461;-69
2022/03/10 09:27:38;;;;;;;24.73;14.93;;;7.30;99.90;;;;;;5048527;28;20471;-69
2022/03/10 09:30:06;;;;;;;21.38;14.25;;;7.40;99.90;;;;;;5037279;28;20037;-69
2022/03/10 09:32:36;;;;;;;22.48;13.88;;;7.60;99.90;;;;;;5029731;28;20038;-69
2022/03/10 09:35:07;;;;;;;22.65;13.80;;;7.70;99.90;;;;;;5042605;28;20036;-69
2022/03/10 09:37:33;;;;;;;21.15;14.02;;;7.80;99.50;;;;;;5048533;28;20029;-69
2022/03/10 09:39:59;;;;;;;19.85;14.07;;;7.90;99.30;;;;;;5047814;28;20293;-70
2022/03/10 09:42:29;;;;;;;23.80;13.90;;;8.00;98.80;;;;;;5040316;28;20095;-70
2022/03/10 09:45:01;;;;;;;22.70;13.68;;;8.10;98.00;;;;;;5034030;28;20431;-69
2022/03/10 09:47:27;;;;;;;19.77;13.55;;;8.20;97.40;;;;;;5034193;28;20033;-69
2022/03/10 09:49:53;;;;;;;20.70;13.55;;;8.20;96.70;;;;;;5035887;28;20029;-69
2022/03/10 09:52:20;;;;;;;19.25;12.95;;;8.30;96.40;;;;;;5031918;28;20377;-69
2022/03/10 09:54:45;;;;;;;26.85;13.57;;;8.40;95.70;;;;;;5030489;28;20035;-69
2022/03/10 09:57:14;;;;;;;21.23;13.93;;;8.40;94.70;;;;;;5050523;28;20477;-70
2022/03/10 10:00:00;;;;;;;24.15;14.57;;;8.40;94.80;;;;;;5035312;28;20040;-70
2022/03/10 10:02:27;;;;;;;22.88;13.77;;;8.40;95.40;;;;;;5046762;28;20060;-70
2022/03/10 10:04:53;;;;;;;22.25;13.63;;;8.50;94.90;;;;;;5028762;28;20273;-70
2022/03/10 10:07:21;;;;;;;22.02;14.15;;;8.60;94.50;;;;;;5027453;28;20029;-70
2022/03/10 10:09:51;;;;;;;21.05;13.93;;;8.70;94.20;;;;;;5032789;28;20028;-70
2022/03/10 10:12:17;;;;;;;23.27;14.45;;;8.90;93.70;;;;;;5033926;28;20021;-70
2022/03/10 10:14:46;;;;;;;22.02;14.38;;;9.10;94.00;;;;;;5035321;28;20437;-70
2022/03/10 10:17:12;;;;;;;22.77;14.00;;;9.10;93.90;;;;;;5027380;28;20029;-70
2022/03/10 10:19:40;;;;;;;23.13;14.52;;;9.20;93.50;;;;;;5035511;28;20040;-70
2022/03/10 10:22:23;;;;;;;22.85;15.02;;;9.40;93.40;;;;;;5033489;28;20380;-70
2022/03/10 10:24:57;;;;;;;24.52;14.63;;;9.50;93.00;;;;;;5043972;28;20063;-70
2022/03/10 10:27:32;;;;;;;21.52;14.00;;;9.50;92.90;;;;;;5047124;28;20051;-70
2022/03/10 10:30:06;;;;;;;22.13;13.95;;;9.50;92.80;;;;;;5046827;28;20095;-70
2022/03/10 10:32:47;;;;;;;19.27;12.50;;;9.50;92.50;;;;;;5028842;28;20068;-70
2022/03/10 10:35:20;;;;;;;22.08;14.25;;;9.60;90.70;;;;;;5024722;28;20022;-70
2022/03/10 10:37:58;;;;;;;21.60;13.65;;;9.70;91.90;;;;;;5033820;28;20017;-70
2022/03/10 10:40:27;;;;;;;21.45;13.25;;;10.00;88.70;;;;;;5046858;28;20029;-70
2022/03/10 10:42:53;;;;;;;22.80;14.18;;;10.10;89.40;;;;;;5046784;28;20051;-70
2022/03/10 10:45:36;;;;;;;20.27;13.73;;;10.30;90.20;;;;;;5044489;28;20029;-70
2022/03/10 10:48:03;;;;;;;24.42;13.23;;;10.30;90.20;;;;;;5036806;28;20397;-70
2022/03/10 10:50:34;;;;;;;23.25;14.05;;;10.40;87.90;;;;;;5026830;28;20128;-70
2022/03/10 10:53:00;;;;;;;20.10;13.93;;;10.50;89.50;;;;;;5026391;28;20091;-70
2022/03/10 10:55:41;;;;;;;21.85;13.07;;;10.70;86.90;;;;;;5037764;28;20024;-70
2022/03/10 10:58:13;;;;;;;20.35;13.05;;;10.80;84.20;;;;;;5044475;28;20538;-70
2022/03/10 11:00:47;;;;;;;18.48;12.52;;;10.80;84.80;;;;;;5033659;28;20036;-70
2022/03/10 11:03:36;;;;;;;21.35;13.70;;;10.90;84.40;;;;;;5026141;28;20037;-70
2022/03/10 11:06:01;;;;;;;19.95;13.10;;;11.00;83.10;;;;;;5027140;28;20025;-70
2022/03/10 11:08:30;;;;;;;17.63;12.02;;;11.20;83.10;;;;;;5025883;28;20071;-70
2022/03/10 11:10:56;;;;;;;19.90;12.98;;;11.30;78.10;;;;;;5026409;28;20041;-70
2022/03/10 11:13:22;;;;;;;21.55;13.10;;;11.40;76.20;;;;;;5027654;28;20029;-70
2022/03/10 11:15:50;;;;;;;20.85;12.98;;;11.40;77.00;;;;;;5037050;28;20021;-70
2022/03/10 11:18:16;;;;;;;18.05;12.43;;;11.50;76.60;;;;;;5037504;28;20329;-71
2022/03/10 11:20:47;;;;;;;20.25;12.85;;;11.70;78.90;;;;;;5025750;28;20037;-70
2022/03/10 11:23:37;;;;;;;19.23;12.15;;;11.90;76.40;;;;;;5039442;28;20382;-71
2022/03/10 11:26:26;;;;;;;18.13;11.70;;;12.00;72.90;;;;;;5026888;28;20036;-70
2022/03/10 11:28:54;;;;;;;19.77;11.85;;;12.10;70.70;;;;;;5028085;28;20207;-71
2022/03/10 11:31:20;;;;;;;19.77;12.07;;;12.20;70.10;;;;;;5025611;28;20037;-71
2022/03/10 11:33:46;;;;;;;17.92;11.95;;;12.20;71.00;;;;;;5024665;28;20035;-70
2022/03/10 11:36:30;;;;;;;17.38;12.02;;;12.30;70.30;;;;;;5025534;28;20021;-70
2022/03/10 11:39:17;;;;;;;19.13;11.43;;;12.50;68.90;;;;;;5026410;28;20257;-70
2022/03/10 11:41:50;;;;;;;17.80;12.68;;;12.60;66.70;;;;;;5025962;28;20030;-70
2022/03/10 11:44:20;;;;;;;16.92;11.43;;;12.70;67.60;;;;;;5023952;28;20080;-70
2022/03/10 11:46:55;;;;;;;17.40;11.10;;;12.80;62.40;;;;;;5026149;28;20230;-70
2022/03/10 11:49:21;;;;;;;21.83;11.38;;;12.80;60.70;;;;;;5040967;28;20021;-70
2022/03/10 11:51:57;;;;;;;16.08;10.98;;;12.80;59.80;;;;;;5043664;28;20108;-70
2022/03/10 11:54:31;;;;;;;15.90;10.27;;;12.90;58.50;;;;;;5038205;28;20427;-70
2022/03/10 11:57:15;;;;;;;16.83;11.20;;;12.90;58.30;;;;;;5034040;28;20025;-70
2022/03/10 11:59:40;;;;;;;13.90;10.52;;;13.00;58.60;;;;;;5025861;28;20033;-70
2022/03/10 12:02:08;;;;;;;17.30;10.85;;;13.10;57.20;;;;;;5040882;28;20558;-70
2022/03/10 12:04:40;;;;;;;16.73;10.52;;;13.20;56.90;;;;;;5037574;28;20425;-70
2022/03/10 12:07:09;;;;;;;16.20;10.38;;;13.30;57.80;;;;;;5039512;28;20152;-70
2022/03/10 12:09:41;;;;;;;14.90;10.05;;;13.30;55.60;;;;;;5045502;28;20029;-70
2022/03/10 12:12:20;;;;;;;17.23;10.23;;;13.20;53.70;;;;;;5045652;28;20037;-70
2022/03/10 12:14:47;;;;;;;13.68;9.98;;;13.30;54.10;;;;;;5025564;28;20052;-71
2022/03/10 12:17:44;;;;;;;13.93;9.60;;;13.30;55.50;;;;;;5031971;28;20021;-71
2022/03/10 12:20:10;;;;;;;18.38;10.43;;;13.30;55.10;;;;;;5026302;28;20477;-71
2022/03/10 12:22:36;;;;;;;13.45;9.73;;;13.30;54.30;;;;;;5032661;28;20040;-71
2022/03/10 12:25:22;;;;;;;16.42;9.73;;;13.40;54.70;;;;;;5043082;28;20033;-71
2022/03/10 12:27:54;;;;;;;14.88;10.02;;;13.50;52.30;;;;;;5061814;28;20097;-70
2022/03/10 12:30:24;;;;;;;14.80;9.93;;;13.40;52.30;;;;;;5037559;28;20025;-71
2022/03/10 12:32:52;;;;;;;17.05;10.45;;;13.50;52.80;;;;;;5037636;28;20441;-71
2022/03/10 12:35:32;;;;;;;15.25;10.23;;;13.60;52.60;;;;;;5022913;28;20038;-71
2022/03/10 12:37:58;;;;;;;12.93;9.43;;;13.80;52.80;;;;;;5042538;28;20029;-71
2022/03/10 12:40:26;;;;;;;14.63;9.38;;;13.80;52.50;;;;;;5045282;28;20021;-71
2022/03/10 12:43:08;;;;;;;12.48;9.10;;;13.90;51.30;;;;;;5045282;28;20281;-71